Terminal Aerodrome Forecast
Issued by NWS Twin Cities, MN

Home | Current Version | Previous Version | Graphics & Text | Print | Product List | Glossary On
Versions: 1 2 3 4 5 6 7 8 9 10 11 12 13 14 15 16 17 18 19 20 21 22 23 24
000
FTUS43 KMPX 040852 AAA
TAFSTC
TAF AMD
KSTC 040852Z 0409/0506 11007KT 6SM BR SCT008
      TEMPO 0410/0412 BKN008
     FM041200 12008KT 5SM BR OVC008
     FM041600 14010KT P6SM SCT010 BKN120
     FM042200 16012KT P6SM BKN120
     FM050300 15008KT P6SM VCSH SCT040 OVC120=

USA.gov is the U.S. government's official web portal to all federal, state and local government web resources and services.